Time;durP1;ratioP1;P1;durP2;ratioP2;P2;SDS_P1;SDS_P2;PMS_P1;PMS_P2;Temp;Humidity;BMP_temperature;BMP_pressure;BME280_temperature;BME280_humidity;BME280_pressure;Samples;Min_cycle;Max_cycle;Signal;HPM_P1;HPM_P2
2022/08/05 00:01:50;;;;;;;5.00;4.60;;;25.40;99.90;;;;;;6142854;28;88992;-68
2022/08/05 00:04:52;;;;;;;4.70;4.30;;;25.40;99.90;;;;;;6147223;28;89152;-67
2022/08/05 00:07:54;;;;;;;5.20;4.80;;;25.40;99.90;;;;;;6148572;28;90050;-68
2022/08/05 00:10:56;;;;;;;4.85;4.45;;;25.40;99.90;;;;;;6151598;28;89118;-68
2022/08/05 00:14:00;;;;;;;5.13;4.72;;;25.40;99.90;;;;;;6135124;28;89053;-67
2022/08/05 00:17:02;;;;;;;4.43;4.07;;;25.40;99.90;;;;;;6146539;28;89099;-67
2022/08/05 00:20:04;;;;;;;4.10;3.70;;;25.40;99.90;;;;;;6146914;28;89100;-68
2022/08/05 00:23:06;;;;;;;4.68;4.28;;;25.40;99.90;;;;;;6151145;28;88912;-68
2022/08/05 00:26:08;;;;;;;3.88;3.58;;;25.40;99.90;;;;;;6152349;28;88975;-68
2022/08/05 00:29:12;;;;;;;4.75;4.25;;;25.40;99.90;;;;;;6153836;28;88642;-67
2022/08/05 00:32:14;;;;;;;5.07;4.60;;;25.30;99.90;;;;;;6151659;28;89723;-68
2022/08/05 00:35:16;;;;;;;5.03;4.05;;;25.40;99.90;;;;;;6152365;28;89292;-68
2022/08/05 00:38:18;;;;;;;5.20;4.70;;;25.40;99.90;;;;;;6146123;28;89087;-68
2022/08/05 00:41:28;;;;;;;5.32;4.85;;;25.40;99.90;;;;;;6154986;28;89054;-67
2022/08/05 00:44:31;;;;;;;4.80;4.38;;;25.40;99.90;;;;;;6146433;28;89981;-67
2022/08/05 00:47:34;;;;;;;6.00;5.60;;;25.40;99.90;;;;;;6139418;28;89055;-68
2022/08/05 00:50:36;;;;;;;3.78;3.47;;;25.40;99.90;;;;;;6138219;28;89100;-68
2022/08/05 00:53:38;;;;;;;4.43;4.07;;;25.30;99.90;;;;;;6141249;28;89101;-67
2022/08/05 00:56:40;;;;;;;4.35;3.95;;;25.30;99.90;;;;;;6139043;28;89551;-68
2022/08/05 00:59:44;;;;;;;6.30;5.72;;;25.30;99.90;;;;;;6144769;28;88366;-68
2022/08/05 01:02:46;;;;;;;4.00;3.70;;;25.30;99.90;;;;;;6154468;28;89517;-68
2022/08/05 01:05:48;;;;;;;4.00;3.70;;;25.30;99.90;;;;;;6149401;28;90603;-68
2022/08/05 01:08:50;;;;;;;3.92;3.50;;;25.30;99.90;;;;;;6157380;28;90052;-67
2022/08/05 01:11:55;;;;;;;3.70;3.40;;;25.30;99.90;;;;;;6153764;28;87929;-68
2022/08/05 01:15:03;;;;;;;3.88;3.58;;;25.30;99.90;;;;;;6150994;28;88991;-67
2022/08/05 01:18:11;;;;;;;5.00;4.60;;;25.30;99.90;;;;;;6150537;28;89090;-68
2022/08/05 01:21:27;;;;;;;4.35;4.00;;;25.30;99.90;;;;;;6144800;28;89574;-67
2022/08/05 01:24:56;;;;;;;4.20;3.80;;;25.30;99.90;;;;;;6146499;28;89102;-68
2022/08/05 01:28:24;;;;;;;4.90;4.50;;;25.30;99.90;;;;;;6138279;28;89191;-68
2022/08/05 01:31:33;;;;;;;6.00;5.10;;;25.30;99.90;;;;;;6133092;28;88394;-68
2022/08/05 01:34:41;;;;;;;5.63;5.13;;;25.30;99.90;;;;;;6138259;28;89191;-68
2022/08/05 01:37:47;;;;;;;4.80;4.40;;;25.30;99.90;;;;;;6148048;28;89098;-67
2022/08/05 01:40:50;;;;;;;4.50;4.15;;;25.20;99.90;;;;;;6138951;28;90724;-68
2022/08/05 01:43:54;;;;;;;4.30;4.00;;;25.20;99.90;;;;;;6137776;28;90722;-68
2022/08/05 01:46:58;;;;;;;5.07;4.57;;;25.20;99.90;;;;;;6155810;28;89040;-68
2022/08/05 01:50:02;;;;;;;4.20;3.80;;;25.20;99.90;;;;;;6153021;28;88962;-67
2022/08/05 01:53:07;;;;;;;4.22;3.85;;;25.20;99.90;;;;;;6133584;28;89016;-67
2022/08/05 01:56:12;;;;;;;4.20;3.80;;;25.20;99.90;;;;;;6147072;28;89043;-67
2022/08/05 01:59:18;;;;;;;3.97;3.67;;;25.20;99.90;;;;;;6152787;28;89110;-68
2022/08/05 02:02:22;;;;;;;3.70;3.40;;;25.20;99.90;;;;;;6147048;28;87239;-67
2022/08/05 02:05:28;;;;;;;3.85;3.47;;;25.20;99.90;;;;;;6148572;28;89058;-67
2022/08/05 02:08:30;;;;;;;4.03;3.72;;;25.20;99.90;;;;;;6144365;28;89013;-67
2022/08/05 02:11:41;;;;;;;4.20;3.90;;;25.20;99.90;;;;;;6142245;28;88819;-67
2022/08/05 02:14:51;;;;;;;5.68;5.18;;;25.20;99.90;;;;;;6149367;28;88990;-67
2022/08/05 02:17:58;;;;;;;4.43;4.03;;;25.20;99.90;;;;;;6153857;28;89011;-68
2022/08/05 02:21:06;;;;;;;5.40;4.28;;;25.20;99.90;;;;;;6148364;28;89643;-68
2022/08/05 02:24:11;;;;;;;4.47;4.07;;;25.20;99.90;;;;;;6148021;28;88310;-68
2022/08/05 02:27:13;;;;;;;4.30;3.90;;;25.20;99.90;;;;;;6140021;28;89223;-67
2022/08/05 02:30:17;;;;;;;5.40;4.00;;;25.20;99.90;;;;;;6143979;28;89055;-68
2022/08/05 02:33:21;;;;;;;4.50;4.10;;;25.20;99.90;;;;;;6142433;28;88337;-67
2022/08/05 02:36:24;;;;;;;4.20;3.90;;;25.20;99.90;;;;;;6147788;28;89095;-67
2022/08/05 02:39:31;;;;;;;4.03;3.72;;;25.10;99.90;;;;;;6144301;28;89171;-67
2022/08/05 02:42:35;;;;;;;3.95;3.65;;;25.20;99.90;;;;;;6142915;28;88973;-67
2022/08/05 02:45:40;;;;;;;3.95;3.65;;;25.10;99.90;;;;;;6138459;28;90244;-68
2022/08/05 02:48:43;;;;;;;3.90;3.60;;;25.10;99.90;;;;;;6134165;28;89092;-68
2022/08/05 02:51:46;;;;;;;3.78;3.47;;;25.10;99.90;;;;;;6143656;28;89077;-67
2022/08/05 02:54:50;;;;;;;4.00;3.70;;;25.10;99.90;;;;;;6154640;28;89166;-67
2022/08/05 02:57:52;;;;;;;4.35;3.60;;;25.10;99.90;;;;;;6154423;28;88660;-68
2022/08/05 03:00:56;;;;;;;4.80;3.90;;;25.10;99.90;;;;;;6143514;28;89384;-67
2022/08/05 03:04:02;;;;;;;4.50;4.10;;;25.10;99.90;;;;;;6145685;28;88403;-67
2022/08/05 03:07:05;;;;;;;5.57;4.00;;;25.10;99.90;;;;;;6151575;28;89034;-68
2022/08/05 03:10:08;;;;;;;4.70;4.30;;;25.10;99.90;;;;;;6149326;28;89036;-67
2022/08/05 03:13:14;;;;;;;4.75;4.35;;;25.10;99.90;;;;;;6141255;28;90186;-67
2022/08/05 03:16:17;;;;;;;4.68;4.30;;;25.10;99.90;;;;;;6152907;28;89038;-67
2022/08/05 03:19:20;;;;;;;5.13;4.63;;;25.10;99.90;;;;;;6148308;28;89117;-68
2022/08/05 03:22:22;;;;;;;4.53;4.18;;;25.10;99.90;;;;;;6148101;28;87903;-67
2022/08/05 03:25:24;;;;;;;4.68;4.38;;;25.10;99.90;;;;;;6155760;28;89026;-67
2022/08/05 03:28:27;;;;;;;4.70;4.03;;;25.10;99.90;;;;;;6155296;28;89126;-67
2022/08/05 03:31:33;;;;;;;4.40;4.03;;;25.00;99.90;;;;;;6135004;28;89017;-67
2022/08/05 03:34:36;;;;;;;5.05;4.38;;;25.00;99.90;;;;;;6131630;28;88635;-67
2022/08/05 03:37:38;;;;;;;4.70;4.30;;;25.00;99.90;;;;;;6140222;28;88580;-67
2022/08/05 03:40:41;;;;;;;4.65;4.25;;;25.00;99.90;;;;;;6153927;28;88973;-67
2022/08/05 03:43:43;;;;;;;6.72;3.92;;;25.00;99.90;;;;;;6157623;28;90216;-67
2022/08/05 03:46:46;;;;;;;4.53;4.10;;;25.00;99.90;;;;;;6143518;28;89111;-67
2022/08/05 03:49:48;;;;;;;4.45;4.05;;;25.00;99.90;;;;;;6140894;28;89393;-67
2022/08/05 03:52:58;;;;;;;5.10;4.60;;;25.00;99.90;;;;;;6135456;28;89037;-67
2022/08/05 03:56:06;;;;;;;4.82;4.40;;;25.00;99.90;;;;;;6147798;28;89163;-67
2022/08/05 03:59:14;;;;;;;5.15;4.65;;;25.00;99.90;;;;;;6148206;28;88971;-68
2022/08/05 04:02:20;;;;;;;4.60;4.30;;;25.00;99.90;;;;;;6150750;28;89123;-67
2022/08/05 04:05:23;;;;;;;5.00;4.53;;;25.00;99.90;;;;;;6136008;28;88410;-67
2022/08/05 04:08:26;;;;;;;4.85;4.30;;;25.00;99.90;;;;;;6145443;28;90161;-67
2022/08/05 04:11:28;;;;;;;4.60;4.30;;;25.00;99.90;;;;;;6144916;28;89106;-67
2022/08/05 04:14:31;;;;;;;5.18;4.68;;;25.00;99.90;;;;;;6141389;28;88928;-66
2022/08/05 04:17:36;;;;;;;5.97;4.53;;;25.00;99.90;;;;;;6146071;28;89334;-67
2022/08/05 04:20:38;;;;;;;5.45;4.93;;;25.00;99.90;;;;;;6135168;28;88996;-68
2022/08/05 04:23:40;;;;;;;4.93;4.32;;;25.00;99.90;;;;;;6147901;28;89100;-67
2022/08/05 04:26:42;;;;;;;4.75;4.35;;;25.00;99.90;;;;;;6146933;28;89186;-67
2022/08/05 04:29:44;;;;;;;5.00;4.30;;;24.90;99.90;;;;;;6145698;28;89460;-67
2022/08/05 04:32:48;;;;;;;5.20;4.80;;;24.90;99.90;;;;;;6140859;28;89243;-68
2022/08/05 04:35:50;;;;;;;5.03;4.53;;;24.90;99.90;;;;;;6154536;28;88489;-67
2022/08/05 04:38:53;;;;;;;5.20;4.70;;;25.00;99.90;;;;;;6154451;28;89116;-67
2022/08/05 04:41:55;;;;;;;5.68;5.18;;;25.00;99.90;;;;;;6141652;28;87948;-67
2022/08/05 04:44:57;;;;;;;5.28;4.85;;;24.90;99.90;;;;;;6138861;28;90059;-68
2022/08/05 04:48:09;;;;;;;7.85;5.55;;;25.00;99.90;;;;;;6137982;28;89175;-67
2022/08/05 04:51:11;;;;;;;6.57;5.03;;;25.00;99.90;;;;;;6140204;28;89126;-68
2022/08/05 04:54:14;;;;;;;5.20;4.80;;;25.00;99.90;;;;;;6152652;28;88008;-65
2022/08/05 04:57:16;;;;;;;7.93;5.47;;;25.00;99.90;;;;;;6143528;28;89194;-66
2022/08/05 05:00:18;;;;;;;5.53;5.03;;;25.00;99.90;;;;;;6143380;28;89133;-66
2022/08/05 05:03:21;;;;;;;6.10;5.60;;;25.00;99.90;;;;;;6145743;28;89048;-66
2022/08/05 05:06:24;;;;;;;8.27;7.47;;;25.00;99.90;;;;;;6147609;28;88390;-66
2022/08/05 05:09:26;;;;;;;7.68;6.25;;;25.00;99.90;;;;;;6146648;28;89031;-66
2022/08/05 05:12:29;;;;;;;6.95;6.32;;;25.00;99.90;;;;;;6150018;28;89084;-66
2022/08/05 05:15:31;;;;;;;6.70;5.93;;;25.10;99.90;;;;;;6151032;28;89969;-66
2022/08/05 05:18:34;;;;;;;6.13;5.63;;;25.10;99.90;;;;;;6147686;28;89496;-66
2022/08/05 05:21:36;;;;;;;6.75;5.20;;;25.10;99.90;;;;;;6150173;28;88993;-65
2022/08/05 05:24:38;;;;;;;5.78;5.28;;;25.10;99.90;;;;;;6143399;28;89178;-66
2022/08/05 05:27:40;;;;;;;6.50;5.90;;;25.00;99.90;;;;;;6146009;28;89215;-66
2022/08/05 05:30:42;;;;;;;5.82;5.32;;;25.10;99.90;;;;;;6147133;28;88111;-66
2022/08/05 05:33:46;;;;;;;5.65;5.20;;;25.10;99.90;;;;;;6148246;28;89500;-67
2022/08/05 05:36:48;;;;;;;5.75;5.30;;;25.10;99.90;;;;;;6146980;28;88608;-66
2022/08/05 05:39:50;;;;;;;6.20;5.25;;;25.10;99.90;;;;;;6136148;28;89064;-66
2022/08/05 05:42:52;;;;;;;8.00;5.57;;;25.10;99.90;;;;;;6141939;28;89115;-67
2022/08/05 05:45:54;;;;;;;6.32;5.72;;;25.10;99.90;;;;;;6143896;28;90010;-67
2022/08/05 05:48:57;;;;;;;6.97;5.57;;;25.10;99.90;;;;;;6141501;28;89174;-67
2022/08/05 05:52:00;;;;;;;5.32;4.65;;;25.10;99.90;;;;;;6139121;28;88295;-67
2022/08/05 05:55:02;;;;;;;6.13;5.47;;;25.10;99.90;;;;;;6150635;28;88119;-67
2022/08/05 05:58:04;;;;;;;7.50;5.90;;;25.10;99.90;;;;;;6140010;28;89127;-67
2022/08/05 06:01:06;;;;;;;7.68;6.10;;;25.10;99.90;;;;;;6148475;28;89040;-66
2022/08/05 06:04:10;;;;;;;5.75;5.22;;;25.10;99.90;;;;;;6154968;28;89034;-66
2022/08/05 06:07:12;;;;;;;8.07;6.38;;;25.20;99.90;;;;;;6143983;28;88719;-67
2022/08/05 06:10:14;;;;;;;8.63;6.00;;;25.10;99.90;;;;;;6155951;28;89067;-67
2022/08/05 06:13:16;;;;;;;9.88;5.97;;;25.20;99.90;;;;;;6150946;28;91398;-68
2022/08/05 06:16:18;;;;;;;6.22;5.72;;;25.20;99.90;;;;;;6150984;28;90484;-68
2022/08/05 06:19:22;;;;;;;8.25;5.82;;;25.20;99.90;;;;;;6149407;28;89034;-67
2022/08/05 06:22:25;;;;;;;11.65;6.32;;;25.20;99.90;;;;;;6145774;28;90556;-66
2022/08/05 06:25:27;;;;;;;8.57;6.22;;;25.30;99.90;;;;;;6147581;28;89045;-67
2022/08/05 06:28:30;;;;;;;13.70;7.93;;;25.20;99.90;;;;;;6148531;28;89097;-65
2022/08/05 06:31:32;;;;;;;15.43;9.02;;;25.30;99.90;;;;;;6151028;28;89136;-65
2022/08/05 06:34:35;;;;;;;16.58;9.18;;;25.20;99.90;;;;;;6143335;28;89122;-66
2022/08/05 06:37:37;;;;;;;16.45;8.63;;;25.30;99.90;;;;;;6137450;28;88241;-66
2022/08/05 06:40:39;;;;;;;11.82;8.07;;;25.30;99.90;;;;;;6144703;28;89075;-65
2022/08/05 06:43:41;;;;;;;14.98;7.90;;;25.30;99.90;;;;;;6148992;28;88922;-65
2022/08/05 06:46:43;;;;;;;12.35;7.63;;;25.40;99.90;;;;;;6154628;28;89982;-65
2022/08/05 06:49:47;;;;;;;12.13;7.10;;;25.40;99.90;;;;;;6142090;28;89063;-65
2022/08/05 06:52:49;;;;;;;8.77;6.75;;;25.40;99.90;;;;;;6150777;28;89103;-65
2022/08/05 06:55:51;;;;;;;8.40;6.97;;;25.40;99.90;;;;;;6154320;28;89000;-65
2022/08/05 06:58:53;;;;;;;7.47;6.65;;;25.40;99.90;;;;;;6153773;28;89018;-65
2022/08/05 07:01:55;;;;;;;10.88;7.75;;;25.40;99.90;;;;;;6150736;28;89141;-65
2022/08/05 07:04:58;;;;;;;9.32;7.75;;;25.40;99.90;;;;;;6145591;28;89043;-66
2022/08/05 07:08:00;;;;;;;8.18;6.80;;;25.50;99.90;;;;;;6140947;28;88362;-66
2022/08/05 07:11:03;;;;;;;6.90;6.25;;;25.60;99.90;;;;;;6142730;28;89142;-66
2022/08/05 07:17:25;;;;;;;6.70;6.10;;;25.80;99.90;;;;;;6147374;28;88238;-63
2022/08/05 07:20:28;;;;;;;7.07;6.07;;;25.90;99.90;;;;;;6142409;28;89156;-66
2022/08/05 07:23:30;;;;;;;6.47;5.88;;;25.90;99.90;;;;;;6150603;28;89103;-65
2022/08/05 07:26:32;;;;;;;6.32;5.72;;;25.90;99.90;;;;;;6142819;28;89047;-64
2022/08/05 07:29:35;;;;;;;6.05;5.43;;;25.90;99.90;;;;;;6151099;28;90047;-64
2022/08/05 07:32:37;;;;;;;6.40;5.78;;;25.90;99.90;;;;;;6141119;28;89486;-65
2022/08/05 07:35:41;;;;;;;7.05;5.88;;;25.90;99.90;;;;;;6148700;28;87992;-64
2022/08/05 07:38:43;;;;;;;5.82;5.32;;;25.90;99.90;;;;;;6150638;28;88395;-64
2022/08/05 07:41:45;;;;;;;5.95;5.38;;;25.90;99.90;;;;;;6153657;28;89141;-64
2022/08/05 07:44:47;;;;;;;6.68;5.53;;;25.90;99.90;;;;;;6147048;28;88985;-64
2022/08/05 07:47:49;;;;;;;5.70;5.20;;;25.90;99.90;;;;;;6154070;28;90413;-64
2022/08/05 07:50:53;;;;;;;6.35;5.57;;;25.90;99.90;;;;;;6165053;28;89032;-64
2022/08/05 07:53:55;;;;;;;5.65;5.07;;;25.90;99.90;;;;;;6143969;28;89021;-64
2022/08/05 07:56:57;;;;;;;6.55;5.50;;;25.90;99.90;;;;;;6157688;28;89034;-64
2022/08/05 07:59:59;;;;;;;5.57;5.07;;;25.90;99.90;;;;;;6143076;28;89027;-64
2022/08/05 08:03:01;;;;;;;6.18;5.55;;;25.80;99.90;;;;;;6147463;28;88245;-64
2022/08/05 08:06:05;;;;;;;5.55;5.05;;;25.80;99.90;;;;;;6145623;28;89074;-64
2022/08/05 08:09:07;;;;;;;6.00;5.40;;;25.80;99.90;;;;;;6157269;28;88813;-64
2022/08/05 08:12:09;;;;;;;5.78;5.13;;;25.80;99.90;;;;;;6140599;28;89222;-65
2022/08/05 08:15:11;;;;;;;5.68;5.07;;;25.80;99.90;;;;;;6156219;28;87967;-64
2022/08/05 08:18:13;;;;;;;5.53;4.93;;;25.80;99.90;;;;;;6146736;28;90403;-65
2022/08/05 08:21:16;;;;;;;5.25;4.85;;;25.80;99.90;;;;;;6146920;28;89560;-65
2022/08/05 08:24:18;;;;;;;5.72;5.13;;;25.80;99.90;;;;;;6138909;28;89363;-63
2022/08/05 08:27:21;;;;;;;7.95;4.95;;;25.80;99.90;;;;;;6154650;28;89148;-65
2022/08/05 08:30:23;;;;;;;6.38;5.28;;;25.80;99.90;;;;;;6143644;28;89176;-64
2022/08/05 08:33:25;;;;;;;5.68;4.85;;;25.80;99.90;;;;;;6149499;28;89042;-64
2022/08/05 08:36:28;;;;;;;7.03;5.30;;;25.80;99.90;;;;;;6156049;28;89350;-64
2022/08/05 08:39:30;;;;;;;7.43;5.30;;;25.80;99.90;;;;;;6142031;28;88239;-64
2022/08/05 08:42:33;;;;;;;14.70;7.50;;;25.80;99.90;;;;;;6149171;28;89155;-65
2022/08/05 08:45:37;;;;;;;10.98;6.13;;;25.80;99.90;;;;;;6150164;28;90416;-64
2022/08/05 08:48:42;;;;;;;14.02;7.20;;;25.80;99.90;;;;;;6153371;28;90084;-67
2022/08/05 08:51:48;;;;;;;11.45;6.72;;;25.80;99.90;;;;;;6148823;28;89439;-64
2022/08/05 08:54:52;;;;;;;11.73;7.22;;;25.80;99.90;;;;;;6141742;28;89078;-64
2022/08/05 08:57:55;;;;;;;10.23;7.10;;;25.80;99.90;;;;;;6148147;28;89096;-64
2022/08/05 09:00:57;;;;;;;8.60;6.10;;;25.80;99.90;;;;;;6148950;28;89120;-64
2022/08/05 09:03:59;;;;;;;11.40;6.80;;;25.80;99.90;;;;;;6141986;28;89830;-64
2022/08/05 09:07:03;;;;;;;10.13;6.47;;;25.80;99.90;;;;;;6145630;28;89033;-64
2022/08/05 09:10:06;;;;;;;16.17;7.75;;;25.80;99.90;;;;;;6138335;28;88347;-64
2022/08/05 09:13:08;;;;;;;22.92;9.48;;;25.80;99.90;;;;;;6143710;28;89123;-64
2022/08/05 09:16:12;;;;;;;25.88;11.10;;;25.80;99.90;;;;;;6136796;28;88958;-63
2022/08/05 09:19:15;;;;;;;23.48;9.30;;;25.80;99.90;;;;;;6147632;28;90077;-66
2022/08/05 09:22:18;;;;;;;23.60;10.45;;;25.80;99.90;;;;;;6138995;28;89038;-66
2022/08/05 09:25:20;;;;;;;25.80;11.35;;;25.90;99.90;;;;;;6153180;28;89338;-66
2022/08/05 09:28:26;;;;;;;23.48;10.20;;;25.90;99.90;;;;;;6156524;28;89088;-66
2022/08/05 09:31:28;;;;;;;18.02;9.57;;;25.80;99.90;;;;;;6148503;28;89477;-66
2022/08/05 09:34:46;;;;;;;17.15;8.93;;;25.90;99.90;;;;;;6147212;28;89100;-66
2022/08/05 09:37:54;;;;;;;16.60;8.57;;;25.90;99.90;;;;;;6136499;28;88963;-65
2022/08/05 09:41:03;;;;;;;14.77;7.82;;;25.90;99.90;;;;;;6147729;28;88294;-66
2022/08/05 09:44:05;;;;;;;13.43;7.22;;;25.90;99.90;;;;;;6154379;28;89359;-66
2022/08/05 09:47:10;;;;;;;14.65;7.82;;;25.90;99.90;;;;;;6146119;28;88647;-66
2022/08/05 09:50:12;;;;;;;13.43;7.47;;;25.90;99.90;;;;;;6143357;28;90067;-66
2022/08/05 09:53:15;;;;;;;13.30;7.43;;;25.90;99.90;;;;;;6136663;28;89123;-66
2022/08/05 09:56:25;;;;;;;9.18;7.00;;;26.00;99.90;;;;;;6145570;28;88080;-65
2022/08/05 09:59:27;;;;;;;11.23;6.75;;;26.00;99.90;;;;;;6139551;28;88069;-66
2022/08/05 10:02:37;;;;;;;11.27;6.68;;;26.00;99.90;;;;;;6146594;28;89403;-66
2022/08/05 10:05:40;;;;;;;12.50;7.55;;;26.00;99.90;;;;;;6135223;28;89185;-66
2022/08/05 10:08:44;;;;;;;11.52;6.90;;;26.00;99.90;;;;;;6144631;28;89166;-66
2022/08/05 10:11:46;;;;;;;11.23;6.88;;;26.10;99.90;;;;;;6147911;28;88268;-66
2022/08/05 10:14:48;;;;;;;10.35;6.78;;;26.20;99.90;;;;;;6146298;28;89029;-66
2022/08/05 10:18:11;;;;;;;9.10;6.20;;;26.20;99.90;;;;;;6133621;28;89097;-66
2022/08/05 10:21:14;;;;;;;8.85;6.45;;;26.20;99.90;;;;;;6134646;28;90112;-66
2022/08/05 10:24:18;;;;;;;9.80;6.50;;;26.20;99.90;;;;;;6148802;28;89318;-66
2022/08/05 10:27:20;;;;;;;8.10;6.05;;;26.20;99.90;;;;;;6140447;28;89167;-66
2022/08/05 10:30:23;;;;;;;9.32;6.20;;;26.20;99.90;;;;;;6144283;28;89045;-66
2022/08/05 10:33:29;;;;;;;8.75;5.88;;;26.20;99.90;;;;;;6137356;28;89401;-66
2022/08/05 10:36:31;;;;;;;9.05;5.90;;;26.20;99.90;;;;;;6146978;28;89241;-66
2022/08/05 10:39:39;;;;;;;9.57;6.38;;;26.20;99.90;;;;;;6146708;28;88953;-63
2022/08/05 10:42:43;;;;;;;12.63;6.15;;;26.20;99.90;;;;;;6150396;28;88431;-64
2022/08/05 10:45:57;;;;;;;12.32;6.18;;;26.20;99.90;;;;;;6147698;28;89122;-64
2022/08/05 10:49:06;;;;;;;8.70;5.95;;;26.20;99.90;;;;;;6153598;28;89044;-61
2022/08/05 10:52:08;;;;;;;9.45;6.30;;;26.20;99.90;;;;;;6148658;28;89973;-64
2022/08/05 10:55:13;;;;;;;13.10;6.03;;;26.20;99.90;;;;;;6159228;28;88005;-63
2022/08/05 10:58:15;;;;;;;8.70;5.80;;;26.20;99.90;;;;;;6149832;28;87955;-64
2022/08/05 11:01:17;;;;;;;10.73;6.10;;;26.10;99.90;;;;;;6154623;28;89440;-64
2022/08/05 11:04:22;;;;;;;9.68;5.97;;;26.10;99.90;;;;;;6148749;28;89282;-64
2022/08/05 11:07:24;;;;;;;10.85;5.82;;;26.10;99.90;;;;;;6138554;28;89123;-64
2022/08/05 11:10:28;;;;;;;9.30;5.82;;;26.10;99.90;;;;;;6147915;28;88176;-64
2022/08/05 11:13:41;;;;;;;8.90;5.90;;;26.10;99.90;;;;;;6154452;28;88325;-64
2022/08/05 11:16:43;;;;;;;7.63;6.00;;;26.10;99.90;;;;;;6136012;28;89022;-64
2022/08/05 11:19:47;;;;;;;8.57;6.10;;;26.10;99.90;;;;;;6137764;28;89111;-64
2022/08/05 11:22:51;;;;;;;8.73;5.65;;;26.10;99.90;;;;;;6138350;28;90083;-64
2022/08/05 11:26:03;;;;;;;7.93;5.28;;;26.00;99.90;;;;;;6158569;28;87994;-64
2022/08/05 11:29:05;;;;;;;8.65;5.75;;;26.00;99.90;;;;;;6147311;28;89371;-63
2022/08/05 11:32:25;;;;;;;9.85;6.20;;;26.10;99.90;;;;;;6139267;28;89258;-64
2022/08/05 11:35:54;;;;;;;7.05;5.80;;;26.00;99.90;;;;;;6135536;28;88963;-64
2022/08/05 11:38:56;;;;;;;8.25;6.00;;;26.00;99.90;;;;;;6147995;28;90172;-64
2022/08/05 11:42:01;;;;;;;8.13;5.80;;;26.00;99.90;;;;;;6158973;28;89057;-64
2022/08/05 11:45:05;;;;;;;7.63;6.10;;;26.10;99.90;;;;;;6155946;28;87656;-64
2022/08/05 11:48:09;;;;;;;7.78;5.28;;;26.00;99.90;;;;;;6157325;28;89233;-64
2022/08/05 11:51:11;;;;;;;7.00;5.55;;;26.10;99.90;;;;;;6149420;28;89453;-64
2022/08/05 11:54:21;;;;;;;7.75;5.80;;;26.00;99.90;;;;;;6144647;28;90377;-64
2022/08/05 11:57:28;;;;;;;7.35;5.82;;;26.10;99.90;;;;;;6153543;28;89391;-64
2022/08/05 12:00:31;;;;;;;6.78;5.63;;;26.00;99.90;;;;;;6138269;28;89080;-64
2022/08/05 12:03:42;;;;;;;8.25;5.30;;;26.00;99.90;;;;;;6148933;28;89060;-64
2022/08/05 12:06:44;;;;;;;6.88;5.30;;;26.00;99.90;;;;;;6144009;28;89039;-64
2022/08/05 12:09:49;;;;;;;7.82;6.05;;;26.00;99.90;;;;;;6137926;28;90787;-64
2022/08/05 12:12:53;;;;;;;6.85;5.60;;;26.00;99.90;;;;;;6145167;28;89156;-64
2022/08/05 12:15:55;;;;;;;5.93;5.20;;;26.00;99.90;;;;;;6151122;28;88304;-64
2022/08/05 12:18:57;;;;;;;7.18;5.47;;;26.00;99.90;;;;;;6158335;28;89002;-64
2022/08/05 12:21:59;;;;;;;5.85;5.25;;;26.00;99.90;;;;;;6143067;28;89080;-64
2022/08/05 12:25:01;;;;;;;7.10;5.70;;;26.00;99.90;;;;;;6146896;28;90104;-64
2022/08/05 12:28:04;;;;;;;5.80;5.22;;;26.00;99.90;;;;;;6158403;28;89060;-64
2022/08/05 12:31:06;;;;;;;7.43;5.10;;;26.00;99.90;;;;;;6153242;28;89214;-64
2022/08/05 12:34:09;;;;;;;6.20;5.25;;;26.10;99.90;;;;;;6142006;28;89154;-64
2022/08/05 12:37:11;;;;;;;5.80;5.25;;;26.00;99.90;;;;;;6139667;28;89434;-64
2022/08/05 12:40:15;;;;;;;6.30;5.30;;;26.10;99.90;;;;;;6140489;28;89250;-64
2022/08/05 12:43:18;;;;;;;6.50;5.15;;;26.10;99.90;;;;;;6144374;28;88225;-64
2022/08/05 12:46:22;;;;;;;5.63;5.03;;;26.10;99.90;;;;;;6139727;28;88466;-64
2022/08/05 12:49:24;;;;;;;5.90;5.20;;;26.10;99.90;;;;;;6156500;28;89158;-64
2022/08/05 12:52:26;;;;;;;5.80;5.20;;;26.10;99.90;;;;;;6154899;28;89046;-64
2022/08/05 12:55:30;;;;;;;6.63;5.15;;;26.00;99.90;;;;;;6133301;28;89924;-64
2022/08/05 12:58:33;;;;;;;5.75;5.15;;;26.10;99.90;;;;;;6146871;28;89318;-64
2022/08/05 13:01:36;;;;;;;7.53;5.57;;;26.00;99.90;;;;;;6135661;28;89095;-64
2022/08/05 13:04:41;;;;;;;6.05;5.43;;;26.10;99.90;;;;;;6144664;28;88180;-64
2022/08/05 13:07:45;;;;;;;5.47;4.97;;;26.00;99.90;;;;;;6157833;28;88986;-64
2022/08/05 13:10:47;;;;;;;6.82;5.18;;;26.10;99.90;;;;;;6144900;28;89258;-64
2022/08/05 13:13:51;;;;;;;5.78;5.18;;;26.00;99.90;;;;;;6153046;28;88008;-64
2022/08/05 13:16:57;;;;;;;5.75;5.15;;;26.10;99.90;;;;;;6135239;28;87807;-64
2022/08/05 13:20:01;;;;;;;5.63;5.13;;;26.10;99.90;;;;;;6145400;28;87962;-64
2022/08/05 13:23:03;;;;;;;5.50;4.97;;;26.10;99.90;;;;;;6150373;28;89038;-64
2022/08/05 13:26:05;;;;;;;5.95;4.75;;;26.10;99.90;;;;;;6140137;28;88930;-64
2022/08/05 13:29:09;;;;;;;6.05;5.25;;;26.10;99.90;;;;;;6144034;28;89293;-64
2022/08/05 13:32:11;;;;;;;4.80;4.40;;;26.10;99.90;;;;;;6145037;28;89080;-64
2022/08/05 13:35:13;;;;;;;5.20;4.68;;;26.10;99.90;;;;;;6132983;28;89106;-64
2022/08/05 13:38:15;;;;;;;5.47;4.95;;;26.10;99.90;;;;;;6134591;28;89340;-64
2022/08/05 13:41:17;;;;;;;5.22;4.68;;;26.10;99.90;;;;;;6137357;28;89186;-64
2022/08/05 13:44:21;;;;;;;5.57;4.97;;;26.10;99.90;;;;;;6133743;28;89152;-64
2022/08/05 13:47:24;;;;;;;5.10;4.53;;;26.10;99.90;;;;;;6146175;28;88280;-64
2022/08/05 13:50:26;;;;;;;5.10;4.60;;;26.10;99.90;;;;;;6142435;28;88164;-64
2022/08/05 13:53:28;;;;;;;6.05;5.05;;;26.10;99.90;;;;;;6144561;28;89344;-64
2022/08/05 13:56:30;;;;;;;5.18;4.68;;;26.10;99.90;;;;;;6142085;28;89997;-64
2022/08/05 13:59:34;;;;;;;5.57;4.88;;;26.10;99.90;;;;;;6149849;28;89174;-64
2022/08/05 14:02:36;;;;;;;5.15;4.65;;;26.00;99.90;;;;;;6142154;28;89177;-64
2022/08/05 14:05:38;;;;;;;4.97;4.47;;;26.10;99.90;;;;;;6148189;28;89156;-64
2022/08/05 14:08:40;;;;;;;6.00;4.90;;;26.10;99.90;;;;;;6147370;28;88981;-64
2022/08/05 14:11:42;;;;;;;5.53;4.88;;;26.10;99.90;;;;;;6155036;28;89483;-64
2022/08/05 14:14:46;;;;;;;5.30;4.80;;;26.10;99.90;;;;;;6146056;28;89066;-64
2022/08/05 14:17:48;;;;;;;5.22;4.63;;;26.10;99.90;;;;;;6155105;28;88349;-64
2022/08/05 14:20:50;;;;;;;5.20;4.53;;;26.10;99.90;;;;;;6133863;28;88801;-64
2022/08/05 14:23:52;;;;;;;5.20;4.70;;;26.10;99.90;;;;;;6136802;28;89480;-64
2022/08/05 14:26:54;;;;;;;5.40;4.90;;;26.10;99.90;;;;;;6132524;28;90034;-64
2022/08/05 14:29:57;;;;;;;4.68;4.28;;;26.10;99.90;;;;;;6144428;28;89443;-64
2022/08/05 14:32:59;;;;;;;4.78;4.32;;;26.10;99.90;;;;;;6132845;28;88875;-65
2022/08/05 14:36:02;;;;;;;5.38;4.88;;;26.10;99.90;;;;;;6145374;28;89488;-64
2022/08/05 14:39:04;;;;;;;5.30;4.80;;;26.00;99.90;;;;;;6147456;28;88981;-64
2022/08/05 14:42:06;;;;;;;5.35;4.82;;;26.10;99.90;;;;;;6147603;28;89302;-65
2022/08/05 14:45:11;;;;;;;5.07;4.57;;;26.10;99.90;;;;;;6132134;28;89174;-64
2022/08/05 14:48:13;;;;;;;4.90;4.45;;;26.10;99.90;;;;;;6155997;28;88205;-64
2022/08/05 14:51:15;;;;;;;5.47;4.97;;;26.10;99.90;;;;;;6144829;28;89340;-64
2022/08/05 14:54:17;;;;;;;5.40;4.93;;;26.10;99.90;;;;;;6151044;28;89087;-65
2022/08/05 14:57:19;;;;;;;5.63;4.85;;;26.10;99.90;;;;;;6149803;28;88949;-64
2022/08/05 15:00:22;;;;;;;5.00;4.55;;;26.10;99.90;;;;;;6145148;28;89261;-64
2022/08/05 15:03:24;;;;;;;5.18;4.70;;;26.10;99.90;;;;;;6148953;28;89144;-64
2022/08/05 15:06:28;;;;;;;5.13;4.63;;;26.10;99.90;;;;;;6151839;28;89031;-65
2022/08/05 15:09:30;;;;;;;5.28;4.78;;;26.10;99.90;;;;;;6146322;28;89120;-64
2022/08/05 15:12:32;;;;;;;5.35;4.85;;;26.10;99.90;;;;;;6141558;28;89116;-64
2022/08/05 15:15:36;;;;;;;5.13;4.63;;;26.10;99.90;;;;;;6154732;28;88753;-64
2022/08/05 15:18:37;;;;;;;4.80;4.40;;;26.10;99.90;;;;;;6143061;28;88881;-64
2022/08/05 15:21:40;;;;;;;6.07;4.82;;;26.10;99.90;;;;;;6140983;28;89131;-64
2022/08/05 15:24:43;;;;;;;4.80;4.35;;;26.10;99.90;;;;;;6155033;28;89249;-64
2022/08/05 15:27:45;;;;;;;4.78;4.38;;;26.10;99.90;;;;;;6130069;28;90025;-64
2022/08/05 15:30:48;;;;;;;5.40;4.90;;;26.10;99.90;;;;;;6152988;28;90267;-64
2022/08/05 15:33:50;;;;;;;4.70;4.30;;;26.10;99.90;;;;;;6145159;28;89146;-64
2022/08/05 15:36:52;;;;;;;5.43;4.60;;;26.10;99.90;;;;;;6147614;28;89013;-64
2022/08/05 15:39:55;;;;;;;5.03;4.53;;;26.10;99.90;;;;;;6153527;28;89142;-64
2022/08/05 15:42:58;;;;;;;5.00;4.43;;;26.10;99.90;;;;;;6137434;28;89309;-64
2022/08/05 15:46:01;;;;;;;5.45;4.95;;;26.10;99.90;;;;;;6150148;28;89094;-64
2022/08/05 15:49:03;;;;;;;5.55;4.82;;;26.10;99.90;;;;;;6139008;28;88298;-64
2022/08/05 15:52:06;;;;;;;5.10;4.60;;;26.10;99.90;;;;;;6147683;28;89258;-64
2022/08/05 15:55:10;;;;;;;4.90;4.50;;;26.10;99.90;;;;;;6146222;28;89077;-64
2022/08/05 15:58:12;;;;;;;4.80;4.40;;;26.10;99.90;;;;;;6157122;28;90323;-65